sensor_id;sensor_type;location;lat;lon;timestamp;P1;durP1;ratioP1;P2;durP2;ratioP2
3865;SDS011;1948;53.250;10.412;2023-08-24T00:01:27;13.40;;;5.77;;
3865;SDS011;1948;53.250;10.412;2023-08-24T00:03:58;17.27;;;5.93;;
3865;SDS011;1948;53.250;10.412;2023-08-24T00:06:26;8.30;;;5.63;;
3865;SDS011;1948;53.250;10.412;2023-08-24T00:08:54;9.33;;;5.57;;
3865;SDS011;1948;53.250;10.412;2023-08-24T00:11:25;10.40;;;6.37;;
3865;SDS011;1948;53.250;10.412;2023-08-24T00:13:58;10.60;;;5.70;;
3865;SDS011;1948;53.250;10.412;2023-08-24T00:16:25;8.80;;;5.60;;
3865;SDS011;1948;53.250;10.412;2023-08-24T00:18:58;14.57;;;6.00;;
3865;SDS011;1948;53.250;10.412;2023-08-24T00:21:31;5.80;;;5.40;;
3865;SDS011;1948;53.250;10.412;2023-08-24T00:23:59;8.63;;;5.83;;
3865;SDS011;1948;53.250;10.412;2023-08-24T00:26:28;7.30;;;5.60;;
3865;SDS011;1948;53.250;10.412;2023-08-24T00:28:55;6.50;;;5.93;;
3865;SDS011;1948;53.250;10.412;2023-08-24T00:31:23;9.00;;;5.10;;
3865;SDS011;1948;53.250;10.412;2023-08-24T00:33:50;12.00;;;5.33;;
3865;SDS011;1948;53.250;10.412;2023-08-24T00:36:17;10.17;;;5.67;;
3865;SDS011;1948;53.250;10.412;2023-08-24T00:38:49;16.33;;;6.03;;
3865;SDS011;1948;53.250;10.412;2023-08-24T00:41:18;5.07;;;4.57;;
3865;SDS011;1948;53.250;10.412;2023-08-24T00:43:47;15.23;;;5.50;;
3865;SDS011;1948;53.250;10.412;2023-08-24T00:46:16;6.10;;;5.50;;
3865;SDS011;1948;53.250;10.412;2023-08-24T00:48:45;6.30;;;5.53;;
3865;SDS011;1948;53.250;10.412;2023-08-24T00:51:13;17.60;;;5.53;;
3865;SDS011;1948;53.250;10.412;2023-08-24T00:53:40;7.33;;;5.80;;
3865;SDS011;1948;53.250;10.412;2023-08-24T00:56:07;7.40;;;5.30;;
3865;SDS011;1948;53.250;10.412;2023-08-24T00:58:35;10.40;;;5.17;;
3865;SDS011;1948;53.250;10.412;2023-08-24T01:01:04;5.43;;;4.90;;
3865;SDS011;1948;53.250;10.412;2023-08-24T01:03:32;5.97;;;5.57;;
3865;SDS011;1948;53.250;10.412;2023-08-24T01:05:59;17.73;;;6.20;;
3865;SDS011;1948;53.250;10.412;2023-08-24T01:08:29;6.23;;;5.63;;
3865;SDS011;1948;53.250;10.412;2023-08-24T01:16:51;9.50;;;6.13;;
3865;SDS011;1948;53.250;10.412;2023-08-24T01:22:02;6.50;;;5.57;;
3865;SDS011;1948;53.250;10.412;2023-08-24T01:24:52;7.10;;;5.27;;
3865;SDS011;1948;53.250;10.412;2023-08-24T01:27:25;6.50;;;5.53;;
3865;SDS011;1948;53.250;10.412;2023-08-24T01:29:54;9.47;;;5.47;;
3865;SDS011;1948;53.250;10.412;2023-08-24T01:32:23;5.80;;;5.50;;
3865;SDS011;1948;53.250;10.412;2023-08-24T01:34:52;13.20;;;5.20;;
3865;SDS011;1948;53.250;10.412;2023-08-24T01:37:20;17.03;;;5.83;;
3865;SDS011;1948;53.250;10.412;2023-08-24T01:39:52;5.73;;;5.23;;
3865;SDS011;1948;53.250;10.412;2023-08-24T01:42:56;12.83;;;6.43;;
3865;SDS011;1948;53.250;10.412;2023-08-24T01:45:30;8.47;;;5.80;;
3865;SDS011;1948;53.250;10.412;2023-08-24T01:48:02;8.73;;;5.80;;
3865;SDS011;1948;53.250;10.412;2023-08-24T01:50:35;8.83;;;6.10;;
3865;SDS011;1948;53.250;10.412;2023-08-24T01:53:03;12.60;;;6.07;;
3865;SDS011;1948;53.250;10.412;2023-08-24T01:55:30;6.13;;;5.40;;
3865;SDS011;1948;53.250;10.412;2023-08-24T01:57:57;10.67;;;6.83;;
3865;SDS011;1948;53.250;10.412;2023-08-24T02:00:25;9.03;;;5.63;;
3865;SDS011;1948;53.250;10.412;2023-08-24T02:02:52;7.43;;;5.77;;
3865;SDS011;1948;53.250;10.412;2023-08-24T02:05:19;7.90;;;6.43;;
3865;SDS011;1948;53.250;10.412;2023-08-24T02:07:46;10.70;;;5.60;;
3865;SDS011;1948;53.250;10.412;2023-08-24T02:10:16;8.60;;;5.53;;
3865;SDS011;1948;53.250;10.412;2023-08-24T02:12:44;8.80;;;6.60;;
3865;SDS011;1948;53.250;10.412;2023-08-24T02:15:11;15.30;;;6.30;;
3865;SDS011;1948;53.250;10.412;2023-08-24T02:17:38;12.77;;;7.13;;
3865;SDS011;1948;53.250;10.412;2023-08-24T02:20:06;9.40;;;5.70;;
3865;SDS011;1948;53.250;10.412;2023-08-24T02:22:35;38.53;;;27.07;;
3865;SDS011;1948;53.250;10.412;2023-08-24T02:25:05;10.17;;;7.47;;
3865;SDS011;1948;53.250;10.412;2023-08-24T02:27:32;30.33;;;6.67;;
3865;SDS011;1948;53.250;10.412;2023-08-24T02:29:59;11.80;;;6.87;;
3865;SDS011;1948;53.250;10.412;2023-08-24T02:32:27;9.90;;;6.50;;
3865;SDS011;1948;53.250;10.412;2023-08-24T02:34:56;9.43;;;5.93;;
3865;SDS011;1948;53.250;10.412;2023-08-24T02:37:24;11.27;;;6.50;;
3865;SDS011;1948;53.250;10.412;2023-08-24T02:39:51;11.37;;;6.83;;
3865;SDS011;1948;53.250;10.412;2023-08-24T02:42:18;11.83;;;6.07;;
3865;SDS011;1948;53.250;10.412;2023-08-24T02:44:47;8.50;;;6.27;;
3865;SDS011;1948;53.250;10.412;2023-08-24T02:47:14;8.93;;;6.83;;
3865;SDS011;1948;53.250;10.412;2023-08-24T02:49:41;11.63;;;6.27;;
3865;SDS011;1948;53.250;10.412;2023-08-24T02:52:08;11.10;;;6.53;;
3865;SDS011;1948;53.250;10.412;2023-08-24T02:54:36;12.47;;;7.30;;
3865;SDS011;1948;53.250;10.412;2023-08-24T02:57:03;16.17;;;6.90;;
3865;SDS011;1948;53.250;10.412;2023-08-24T02:59:30;11.43;;;6.30;;
3865;SDS011;1948;53.250;10.412;2023-08-24T03:01:57;7.37;;;6.70;;
3865;SDS011;1948;53.250;10.412;2023-08-24T03:04:24;12.33;;;6.97;;
3865;SDS011;1948;53.250;10.412;2023-08-24T03:06:54;16.00;;;7.20;;
3865;SDS011;1948;53.250;10.412;2023-08-24T03:09:23;9.93;;;6.10;;
3865;SDS011;1948;53.250;10.412;2023-08-24T03:11:50;10.50;;;8.00;;
3865;SDS011;1948;53.250;10.412;2023-08-24T03:14:17;12.67;;;6.50;;
3865;SDS011;1948;53.250;10.412;2023-08-24T03:16:45;11.27;;;6.10;;
3865;SDS011;1948;53.250;10.412;2023-08-24T03:19:12;9.00;;;5.73;;
3865;SDS011;1948;53.250;10.412;2023-08-24T03:21:40;6.77;;;5.47;;
3865;SDS011;1948;53.250;10.412;2023-08-24T03:24:07;8.63;;;6.67;;
3865;SDS011;1948;53.250;10.412;2023-08-24T03:26:35;5.87;;;5.47;;
3865;SDS011;1948;53.250;10.412;2023-08-24T03:29:05;8.23;;;6.23;;
3865;SDS011;1948;53.250;10.412;2023-08-24T03:31:32;6.60;;;6.10;;
3865;SDS011;1948;53.250;10.412;2023-08-24T03:34:04;10.37;;;6.67;;
3865;SDS011;1948;53.250;10.412;2023-08-24T03:36:32;8.33;;;6.60;;
3865;SDS011;1948;53.250;10.412;2023-08-24T03:38:59;9.90;;;6.07;;
3865;SDS011;1948;53.250;10.412;2023-08-24T03:41:26;9.03;;;6.37;;
3865;SDS011;1948;53.250;10.412;2023-08-24T03:43:53;25.67;;;6.83;;
3865;SDS011;1948;53.250;10.412;2023-08-24T03:46:22;7.00;;;6.50;;
3865;SDS011;1948;53.250;10.412;2023-08-24T03:48:50;9.20;;;6.20;;
3865;SDS011;1948;53.250;10.412;2023-08-24T03:51:21;13.27;;;5.97;;
3865;SDS011;1948;53.250;10.412;2023-08-24T03:53:51;12.80;;;6.67;;
3865;SDS011;1948;53.250;10.412;2023-08-24T03:56:18;16.57;;;6.83;;
3865;SDS011;1948;53.250;10.412;2023-08-24T03:58:45;63.77;;;11.73;;
3865;SDS011;1948;53.250;10.412;2023-08-24T04:01:17;12.67;;;6.77;;
3865;SDS011;1948;53.250;10.412;2023-08-24T04:03:45;11.23;;;6.33;;
3865;SDS011;1948;53.250;10.412;2023-08-24T04:06:17;15.20;;;6.10;;
3865;SDS011;1948;53.250;10.412;2023-08-24T04:08:46;18.93;;;7.70;;
3865;SDS011;1948;53.250;10.412;2023-08-24T04:11:13;31.30;;;10.40;;
3865;SDS011;1948;53.250;10.412;2023-08-24T04:13:40;16.53;;;7.50;;
3865;SDS011;1948;53.250;10.412;2023-08-24T04:16:07;21.20;;;8.40;;
3865;SDS011;1948;53.250;10.412;2023-08-24T04:18:34;10.63;;;7.33;;
3865;SDS011;1948;53.250;10.412;2023-08-24T04:21:04;13.50;;;6.40;;
3865;SDS011;1948;53.250;10.412;2023-08-24T04:23:34;7.60;;;6.80;;
3865;SDS011;1948;53.250;10.412;2023-08-24T04:26:01;11.53;;;7.30;;
3865;SDS011;1948;53.250;10.412;2023-08-24T04:28:28;15.40;;;6.50;;
3865;SDS011;1948;53.250;10.412;2023-08-24T04:30:56;17.40;;;7.83;;
3865;SDS011;1948;53.250;10.412;2023-08-24T04:33:23;16.40;;;8.00;;
3865;SDS011;1948;53.250;10.412;2023-08-24T04:35:50;20.13;;;7.33;;
3865;SDS011;1948;53.250;10.412;2023-08-24T04:38:17;11.37;;;7.40;;
3865;SDS011;1948;53.250;10.412;2023-08-24T04:40:47;16.43;;;6.80;;
3865;SDS011;1948;53.250;10.412;2023-08-24T04:43:20;12.63;;;6.77;;
3865;SDS011;1948;53.250;10.412;2023-08-24T04:45:52;9.47;;;8.10;;
3865;SDS011;1948;53.250;10.412;2023-08-24T04:48:21;13.53;;;7.37;;
3865;SDS011;1948;53.250;10.412;2023-08-24T04:50:49;12.67;;;7.90;;
3865;SDS011;1948;53.250;10.412;2023-08-24T04:53:17;13.53;;;7.13;;
3865;SDS011;1948;53.250;10.412;2023-08-24T04:55:45;15.03;;;6.60;;
3865;SDS011;1948;53.250;10.412;2023-08-24T04:58:13;7.20;;;6.50;;
3865;SDS011;1948;53.250;10.412;2023-08-24T05:00:40;8.83;;;6.30;;
3865;SDS011;1948;53.250;10.412;2023-08-24T05:03:07;10.30;;;5.17;;
3865;SDS011;1948;53.250;10.412;2023-08-24T05:05:36;15.03;;;5.47;;
3865;SDS011;1948;53.250;10.412;2023-08-24T05:08:04;12.40;;;5.90;;
3865;SDS011;1948;53.250;10.412;2023-08-24T05:10:34;15.43;;;5.77;;
3865;SDS011;1948;53.250;10.412;2023-08-24T05:13:04;5.90;;;5.60;;
3865;SDS011;1948;53.250;10.412;2023-08-24T05:15:33;7.63;;;5.83;;
3865;SDS011;1948;53.250;10.412;2023-08-24T05:18:00;5.87;;;5.37;;
3865;SDS011;1948;53.250;10.412;2023-08-24T05:20:30;9.23;;;6.87;;
3865;SDS011;1948;53.250;10.412;2023-08-24T05:22:58;7.00;;;6.40;;
3865;SDS011;1948;53.250;10.412;2023-08-24T05:25:26;19.37;;;6.47;;
3865;SDS011;1948;53.250;10.412;2023-08-24T05:27:53;18.40;;;6.73;;
3865;SDS011;1948;53.250;10.412;2023-08-24T05:30:20;11.80;;;5.97;;
3865;SDS011;1948;53.250;10.412;2023-08-24T05:32:47;17.00;;;6.60;;
3865;SDS011;1948;53.250;10.412;2023-08-24T05:35:14;9.90;;;6.20;;
3865;SDS011;1948;53.250;10.412;2023-08-24T05:37:43;11.13;;;5.47;;
3865;SDS011;1948;53.250;10.412;2023-08-24T05:40:10;18.27;;;6.40;;
3865;SDS011;1948;53.250;10.412;2023-08-24T05:42:37;10.43;;;6.47;;
3865;SDS011;1948;53.250;10.412;2023-08-24T05:45:04;10.17;;;6.30;;
3865;SDS011;1948;53.250;10.412;2023-08-24T05:47:32;12.93;;;5.53;;
3865;SDS011;1948;53.250;10.412;2023-08-24T05:49:59;9.80;;;6.20;;
3865;SDS011;1948;53.250;10.412;2023-08-24T05:52:26;10.17;;;5.90;;
3865;SDS011;1948;53.250;10.412;2023-08-24T05:54:56;6.43;;;5.57;;
3865;SDS011;1948;53.250;10.412;2023-08-24T05:57:23;6.77;;;6.17;;
3865;SDS011;1948;53.250;10.412;2023-08-24T05:59:50;11.10;;;6.43;;
3865;SDS011;1948;53.250;10.412;2023-08-24T06:02:17;22.13;;;6.30;;
3865;SDS011;1948;53.250;10.412;2023-08-24T06:04:44;9.10;;;5.80;;
3865;SDS011;1948;53.250;10.412;2023-08-24T06:07:13;10.27;;;6.50;;
3865;SDS011;1948;53.250;10.412;2023-08-24T06:09:40;17.57;;;5.83;;
3865;SDS011;1948;53.250;10.412;2023-08-24T06:12:09;14.33;;;6.67;;
3865;SDS011;1948;53.250;10.412;2023-08-24T06:14:39;20.87;;;7.40;;
3865;SDS011;1948;53.250;10.412;2023-08-24T06:17:06;9.73;;;6.87;;
3865;SDS011;1948;53.250;10.412;2023-08-24T06:19:35;12.87;;;6.77;;
3865;SDS011;1948;53.250;10.412;2023-08-24T06:22:02;7.60;;;6.87;;
3865;SDS011;1948;53.250;10.412;2023-08-24T06:24:29;10.70;;;6.60;;
3865;SDS011;1948;53.250;10.412;2023-08-24T06:26:56;15.53;;;6.30;;
3865;SDS011;1948;53.250;10.412;2023-08-24T06:29:23;15.40;;;6.00;;
3865;SDS011;1948;53.250;10.412;2023-08-24T06:31:50;8.93;;;6.17;;
3865;SDS011;1948;53.250;10.412;2023-08-24T06:34:17;5.87;;;5.30;;
3865;SDS011;1948;53.250;10.412;2023-08-24T06:36:44;6.77;;;4.40;;
3865;SDS011;1948;53.250;10.412;2023-08-24T06:39:11;6.93;;;4.73;;
3865;SDS011;1948;53.250;10.412;2023-08-24T06:41:40;7.63;;;4.70;;
3865;SDS011;1948;53.250;10.412;2023-08-24T06:44:07;6.83;;;4.60;;
3865;SDS011;1948;53.250;10.412;2023-08-24T06:46:35;6.73;;;4.00;;
3865;SDS011;1948;53.250;10.412;2023-08-24T06:49:02;7.93;;;4.17;;
3865;SDS011;1948;53.250;10.412;2023-08-24T06:51:29;4.03;;;3.70;;
3865;SDS011;1948;53.250;10.412;2023-08-24T06:53:56;4.13;;;3.60;;
3865;SDS011;1948;53.250;10.412;2023-08-24T06:56:23;5.30;;;3.47;;
3865;SDS011;1948;53.250;10.412;2023-08-24T06:58:50;15.10;;;4.00;;
3865;SDS011;1948;53.250;10.412;2023-08-24T07:01:19;7.00;;;3.47;;
3865;SDS011;1948;53.250;10.412;2023-08-24T07:03:46;4.90;;;2.90;;
3865;SDS011;1948;53.250;10.412;2023-08-24T07:06:13;8.60;;;3.40;;
3865;SDS011;1948;53.250;10.412;2023-08-24T07:08:40;3.77;;;3.43;;
3865;SDS011;1948;53.250;10.412;2023-08-24T07:11:09;4.83;;;3.17;;
3865;SDS011;1948;53.250;10.412;2023-08-24T07:13:36;4.40;;;2.77;;
3865;SDS011;1948;53.250;10.412;2023-08-24T07:16:03;3.40;;;3.00;;
3865;SDS011;1948;53.250;10.412;2023-08-24T07:18:30;8.13;;;3.20;;
3865;SDS011;1948;53.250;10.412;2023-08-24T07:20:57;3.27;;;2.97;;
3865;SDS011;1948;53.250;10.412;2023-08-24T07:23:31;7.13;;;2.70;;
3865;SDS011;1948;53.250;10.412;2023-08-24T07:25:59;3.40;;;2.30;;
3865;SDS011;1948;53.250;10.412;2023-08-24T07:28:26;8.83;;;2.83;;
3865;SDS011;1948;53.250;10.412;2023-08-24T07:30:53;4.73;;;2.40;;
3865;SDS011;1948;53.250;10.412;2023-08-24T07:33:22;4.93;;;2.13;;
3865;SDS011;1948;53.250;10.412;2023-08-24T07:35:51;9.10;;;2.60;;
3865;SDS011;1948;53.250;10.412;2023-08-24T07:38:18;6.00;;;2.30;;
3865;SDS011;1948;53.250;10.412;2023-08-24T07:40:45;2.87;;;1.83;;
3865;SDS011;1948;53.250;10.412;2023-08-24T07:43:12;6.07;;;3.10;;
3865;SDS011;1948;53.250;10.412;2023-08-24T07:45:39;3.90;;;2.00;;
3865;SDS011;1948;53.250;10.412;2023-08-24T07:48:07;10.07;;;2.83;;
3865;SDS011;1948;53.250;10.412;2023-08-24T07:50:34;8.43;;;2.30;;
3865;SDS011;1948;53.250;10.412;2023-08-24T07:53:03;5.70;;;2.93;;
3865;SDS011;1948;53.250;10.412;2023-08-24T07:55:30;5.17;;;3.00;;
3865;SDS011;1948;53.250;10.412;2023-08-24T07:57:57;3.00;;;2.73;;
3865;SDS011;1948;53.250;10.412;2023-08-24T08:00:24;23.17;;;3.30;;
3865;SDS011;1948;53.250;10.412;2023-08-24T08:02:52;6.33;;;2.93;;
3865;SDS011;1948;53.250;10.412;2023-08-24T08:05:19;11.10;;;2.47;;
3865;SDS011;1948;53.250;10.412;2023-08-24T08:07:48;2.70;;;2.47;;
3865;SDS011;1948;53.250;10.412;2023-08-24T08:10:16;3.03;;;2.53;;
3865;SDS011;1948;53.250;10.412;2023-08-24T08:12:43;5.90;;;2.70;;
3865;SDS011;1948;53.250;10.412;2023-08-24T08:15:10;10.23;;;2.70;;
3865;SDS011;1948;53.250;10.412;2023-08-24T08:17:37;11.10;;;3.00;;
3865;SDS011;1948;53.250;10.412;2023-08-24T08:20:04;6.93;;;2.63;;
3865;SDS011;1948;53.250;10.412;2023-08-24T08:22:32;4.03;;;2.83;;
3865;SDS011;1948;53.250;10.412;2023-08-24T08:25:05;6.10;;;2.63;;
3865;SDS011;1948;53.250;10.412;2023-08-24T08:27:33;8.30;;;2.77;;
3865;SDS011;1948;53.250;10.412;2023-08-24T08:30:00;5.07;;;2.63;;
3865;SDS011;1948;53.250;10.412;2023-08-24T08:32:27;12.43;;;2.30;;
3865;SDS011;1948;53.250;10.412;2023-08-24T08:34:54;3.50;;;2.67;;
3865;SDS011;1948;53.250;10.412;2023-08-24T08:37:23;4.23;;;2.60;;
3865;SDS011;1948;53.250;10.412;2023-08-24T08:39:50;9.53;;;2.60;;
3865;SDS011;1948;53.250;10.412;2023-08-24T08:42:20;4.00;;;2.50;;
3865;SDS011;1948;53.250;10.412;2023-08-24T08:44:49;7.40;;;2.57;;
3865;SDS011;1948;53.250;10.412;2023-08-24T08:47:20;7.10;;;2.30;;
3865;SDS011;1948;53.250;10.412;2023-08-24T08:49:50;5.73;;;2.40;;
3865;SDS011;1948;53.250;10.412;2023-08-24T08:52:23;3.00;;;2.83;;
3865;SDS011;1948;53.250;10.412;2023-08-24T08:54:51;10.73;;;2.50;;
3865;SDS011;1948;53.250;10.412;2023-08-24T08:57:22;8.10;;;2.70;;
3865;SDS011;1948;53.250;10.412;2023-08-24T08:59:53;8.73;;;2.70;;
3865;SDS011;1948;53.250;10.412;2023-08-24T09:02:21;2.20;;;2.10;;
3865;SDS011;1948;53.250;10.412;2023-08-24T09:04:51;11.23;;;2.23;;
3865;SDS011;1948;53.250;10.412;2023-08-24T09:07:18;5.30;;;2.10;;
3865;SDS011;1948;53.250;10.412;2023-08-24T09:09:49;5.70;;;2.13;;
3865;SDS011;1948;53.250;10.412;2023-08-24T09:12:17;17.70;;;2.20;;
3865;SDS011;1948;53.250;10.412;2023-08-24T09:14:46;3.27;;;1.90;;
3865;SDS011;1948;53.250;10.412;2023-08-24T09:17:21;9.40;;;2.10;;
3865;SDS011;1948;53.250;10.412;2023-08-24T09:19:49;1.73;;;1.73;;
3865;SDS011;1948;53.250;10.412;2023-08-24T09:22:20;4.43;;;2.00;;
3865;SDS011;1948;53.250;10.412;2023-08-24T09:24:48;4.97;;;2.23;;
3865;SDS011;1948;53.250;10.412;2023-08-24T09:27:18;13.23;;;2.10;;
3865;SDS011;1948;53.250;10.412;2023-08-24T09:29:52;6.43;;;2.17;;
3865;SDS011;1948;53.250;10.412;2023-08-24T09:32:23;7.70;;;2.60;;
3865;SDS011;1948;53.250;10.412;2023-08-24T09:35:18;7.10;;;2.40;;
3865;SDS011;1948;53.250;10.412;2023-08-24T09:37:49;2.90;;;1.90;;
3865;SDS011;1948;53.250;10.412;2023-08-24T09:40:23;2.40;;;2.00;;
3865;SDS011;1948;53.250;10.412;2023-08-24T09:42:52;5.63;;;2.27;;
3865;SDS011;1948;53.250;10.412;2023-08-24T09:45:19;4.87;;;2.60;;
3865;SDS011;1948;53.250;10.412;2023-08-24T09:47:51;7.40;;;2.67;;
3865;SDS011;1948;53.250;10.412;2023-08-24T09:50:19;7.27;;;2.63;;
3865;SDS011;1948;53.250;10.412;2023-08-24T09:52:47;7.73;;;2.67;;
3865;SDS011;1948;53.250;10.412;2023-08-24T09:55:19;3.73;;;2.80;;
3865;SDS011;1948;53.250;10.412;2023-08-24T09:57:51;2.87;;;2.43;;
3865;SDS011;1948;53.250;10.412;2023-08-24T10:00:23;3.23;;;2.40;;
3865;SDS011;1948;53.250;10.412;2023-08-24T10:02:52;4.30;;;2.57;;
3865;SDS011;1948;53.250;10.412;2023-08-24T10:05:21;6.77;;;2.53;;
3865;SDS011;1948;53.250;10.412;2023-08-24T10:08:06;16.63;;;2.80;;
3865;SDS011;1948;53.250;10.412;2023-08-24T10:10:36;2.50;;;2.40;;
3865;SDS011;1948;53.250;10.412;2023-08-24T10:13:07;2.50;;;2.40;;
3865;SDS011;1948;53.250;10.412;2023-08-24T10:15:42;7.70;;;3.70;;
3865;SDS011;1948;53.250;10.412;2023-08-24T10:18:13;7.53;;;3.13;;
3865;SDS011;1948;53.250;10.412;2023-08-24T10:20:44;2.83;;;2.60;;
3865;SDS011;1948;53.250;10.412;2023-08-24T10:23:14;8.43;;;3.17;;
3865;SDS011;1948;53.250;10.412;2023-08-24T10:25:43;4.73;;;2.40;;
3865;SDS011;1948;53.250;10.412;2023-08-24T10:28:13;9.10;;;2.20;;
3865;SDS011;1948;53.250;10.412;2023-08-24T10:30:42;2.90;;;2.77;;
3865;SDS011;1948;53.250;10.412;2023-08-24T10:33:12;5.03;;;2.37;;
3865;SDS011;1948;53.250;10.412;2023-08-24T10:35:43;4.73;;;2.70;;
3865;SDS011;1948;53.250;10.412;2023-08-24T10:38:22;2.57;;;2.37;;
3865;SDS011;1948;53.250;10.412;2023-08-24T10:40:55;2.47;;;2.27;;
3865;SDS011;1948;53.250;10.412;2023-08-24T10:43:35;10.97;;;3.30;;
3865;SDS011;1948;53.250;10.412;2023-08-24T10:46:15;5.37;;;2.30;;
3865;SDS011;1948;53.250;10.412;2023-08-24T10:51:21;4.30;;;2.30;;
3865;SDS011;1948;53.250;10.412;2023-08-24T10:56:34;6.73;;;2.17;;
3865;SDS011;1948;53.250;10.412;2023-08-24T10:59:24;6.87;;;2.60;;
3865;SDS011;1948;53.250;10.412;2023-08-24T11:01:57;5.13;;;2.30;;
3865;SDS011;1948;53.250;10.412;2023-08-24T11:04:25;5.00;;;2.80;;
3865;SDS011;1948;53.250;10.412;2023-08-24T11:06:58;5.20;;;2.90;;
3865;SDS011;1948;53.250;10.412;2023-08-24T11:09:45;8.20;;;2.50;;
3865;SDS011;1948;53.250;10.412;2023-08-24T11:12:15;3.90;;;2.30;;
3865;SDS011;1948;53.250;10.412;2023-08-24T11:14:51;2.40;;;2.30;;
3865;SDS011;1948;53.250;10.412;2023-08-24T11:17:25;1.93;;;1.93;;
3865;SDS011;1948;53.250;10.412;2023-08-24T11:20:00;3.20;;;2.13;;
3865;SDS011;1948;53.250;10.412;2023-08-24T11:22:31;2.37;;;2.27;;
3865;SDS011;1948;53.250;10.412;2023-08-24T11:25:01;5.13;;;2.03;;
3865;SDS011;1948;53.250;10.412;2023-08-24T11:27:29;2.17;;;2.00;;
3865;SDS011;1948;53.250;10.412;2023-08-24T11:29:58;2.17;;;2.17;;
3865;SDS011;1948;53.250;10.412;2023-08-24T11:32:26;2.87;;;2.00;;
3865;SDS011;1948;53.250;10.412;2023-08-24T11:34:53;3.43;;;1.93;;
3865;SDS011;1948;53.250;10.412;2023-08-24T11:37:21;4.20;;;2.80;;
3865;SDS011;1948;53.250;10.412;2023-08-24T11:39:48;4.90;;;2.20;;
3865;SDS011;1948;53.250;10.412;2023-08-24T11:42:15;4.00;;;2.30;;
3865;SDS011;1948;53.250;10.412;2023-08-24T11:44:48;5.73;;;2.10;;
3865;SDS011;1948;53.250;10.412;2023-08-24T11:47:21;3.17;;;2.87;;
3865;SDS011;1948;53.250;10.412;2023-08-24T11:49:50;4.37;;;2.13;;
3865;SDS011;1948;53.250;10.412;2023-08-24T11:52:17;3.30;;;2.23;;
3865;SDS011;1948;53.250;10.412;2023-08-24T11:54:44;3.53;;;2.30;;
3865;SDS011;1948;53.250;10.412;2023-08-24T11:57:12;7.70;;;2.57;;
3865;SDS011;1948;53.250;10.412;2023-08-24T11:59:41;3.43;;;1.80;;
3865;SDS011;1948;53.250;10.412;2023-08-24T12:02:12;2.20;;;2.00;;
3865;SDS011;1948;53.250;10.412;2023-08-24T12:04:41;2.20;;;2.00;;
3865;SDS011;1948;53.250;10.412;2023-08-24T12:07:11;4.30;;;2.60;;
3865;SDS011;1948;53.250;10.412;2023-08-24T12:09:41;4.37;;;2.43;;
3865;SDS011;1948;53.250;10.412;2023-08-24T12:12:14;6.33;;;2.40;;
3865;SDS011;1948;53.250;10.412;2023-08-24T12:14:50;3.33;;;2.03;;
3865;SDS011;1948;53.250;10.412;2023-08-24T12:17:21;2.50;;;1.90;;
3865;SDS011;1948;53.250;10.412;2023-08-24T12:19:58;7.57;;;2.00;;
3865;SDS011;1948;53.250;10.412;2023-08-24T12:22:27;12.73;;;2.00;;
3865;SDS011;1948;53.250;10.412;2023-08-24T12:25:03;1.97;;;1.87;;
3865;SDS011;1948;53.250;10.412;2023-08-24T12:27:31;5.97;;;2.03;;
3865;SDS011;1948;53.250;10.412;2023-08-24T12:30:01;4.00;;;1.90;;
3865;SDS011;1948;53.250;10.412;2023-08-24T12:33:05;4.13;;;2.00;;
3865;SDS011;1948;53.250;10.412;2023-08-24T12:35:25;4.47;;;2.10;;
3865;SDS011;1948;53.250;10.412;2023-08-24T12:37:54;7.83;;;2.10;;
3865;SDS011;1948;53.250;10.412;2023-08-24T12:40:24;2.27;;;2.17;;
3865;SDS011;1948;53.250;10.412;2023-08-24T12:42:51;3.33;;;2.30;;
3865;SDS011;1948;53.250;10.412;2023-08-24T12:45:18;5.17;;;2.20;;
3865;SDS011;1948;53.250;10.412;2023-08-24T12:47:45;7.30;;;2.40;;
3865;SDS011;1948;53.250;10.412;2023-08-24T12:50:16;2.00;;;1.90;;
3865;SDS011;1948;53.250;10.412;2023-08-24T12:52:43;7.53;;;2.27;;
3865;SDS011;1948;53.250;10.412;2023-08-24T12:55:10;4.77;;;2.67;;
3865;SDS011;1948;53.250;10.412;2023-08-24T12:57:37;10.57;;;2.30;;
3865;SDS011;1948;53.250;10.412;2023-08-24T13:00:06;1.90;;;1.80;;
3865;SDS011;1948;53.250;10.412;2023-08-24T13:02:35;5.53;;;2.10;;
3865;SDS011;1948;53.250;10.412;2023-08-24T13:05:04;4.17;;;2.53;;
3865;SDS011;1948;53.250;10.412;2023-08-24T13:07:32;2.10;;;2.00;;
3865;SDS011;1948;53.250;10.412;2023-08-24T13:10:03;4.13;;;2.20;;
3865;SDS011;1948;53.250;10.412;2023-08-24T13:12:33;3.47;;;2.27;;
3865;SDS011;1948;53.250;10.412;2023-08-24T13:15:03;2.27;;;2.17;;
3865;SDS011;1948;53.250;10.412;2023-08-24T13:17:34;2.53;;;2.23;;
3865;SDS011;1948;53.250;10.412;2023-08-24T13:20:01;2.83;;;2.63;;
3865;SDS011;1948;53.250;10.412;2023-08-24T13:22:29;2.77;;;2.57;;
3865;SDS011;1948;53.250;10.412;2023-08-24T13:24:59;2.33;;;2.13;;
3865;SDS011;1948;53.250;10.412;2023-08-24T13:27:26;2.40;;;2.30;;
3865;SDS011;1948;53.250;10.412;2023-08-24T13:29:56;2.73;;;2.33;;
3865;SDS011;1948;53.250;10.412;2023-08-24T13:32:26;2.33;;;2.13;;
3865;SDS011;1948;53.250;10.412;2023-08-24T13:34:58;2.27;;;1.90;;
3865;SDS011;1948;53.250;10.412;2023-08-24T13:37:25;8.03;;;2.60;;
3865;SDS011;1948;53.250;10.412;2023-08-24T13:39:52;2.20;;;2.10;;
3865;SDS011;1948;53.250;10.412;2023-08-24T13:42:19;4.40;;;2.13;;
3865;SDS011;1948;53.250;10.412;2023-08-24T13:44:46;5.03;;;2.40;;
3865;SDS011;1948;53.250;10.412;2023-08-24T13:47:13;2.87;;;2.20;;
3865;SDS011;1948;53.250;10.412;2023-08-24T13:49:40;2.60;;;2.50;;
3865;SDS011;1948;53.250;10.412;2023-08-24T13:52:08;2.40;;;2.40;;
3865;SDS011;1948;53.250;10.412;2023-08-24T13:54:37;5.50;;;2.60;;
3865;SDS011;1948;53.250;10.412;2023-08-24T13:57:04;2.37;;;2.17;;
3865;SDS011;1948;53.250;10.412;2023-08-24T13:59:33;2.77;;;2.60;;
3865;SDS011;1948;53.250;10.412;2023-08-24T14:02:01;2.00;;;1.90;;
3865;SDS011;1948;53.250;10.412;2023-08-24T14:04:30;9.80;;;2.10;;
3865;SDS011;1948;53.250;10.412;2023-08-24T14:07:02;6.50;;;2.60;;
3865;SDS011;1948;53.250;10.412;2023-08-24T14:09:29;2.20;;;1.97;;
3865;SDS011;1948;53.250;10.412;2023-08-24T14:11:59;4.23;;;3.00;;
3865;SDS011;1948;53.250;10.412;2023-08-24T14:14:26;11.13;;;2.17;;
3865;SDS011;1948;53.250;10.412;2023-08-24T14:16:56;7.83;;;2.57;;
3865;SDS011;1948;53.250;10.412;2023-08-24T14:19:23;7.33;;;2.10;;
3865;SDS011;1948;53.250;10.412;2023-08-24T14:21:52;2.90;;;2.10;;
3865;SDS011;1948;53.250;10.412;2023-08-24T14:24:21;2.10;;;2.00;;
3865;SDS011;1948;53.250;10.412;2023-08-24T14:26:49;3.90;;;1.87;;
3865;SDS011;1948;53.250;10.412;2023-08-24T14:29:19;7.23;;;2.23;;
3865;SDS011;1948;53.250;10.412;2023-08-24T14:31:46;14.03;;;2.50;;
3865;SDS011;1948;53.250;10.412;2023-08-24T14:34:13;2.80;;;2.23;;
3865;SDS011;1948;53.250;10.412;2023-08-24T14:36:40;2.80;;;2.27;;
3865;SDS011;1948;53.250;10.412;2023-08-24T14:39:07;9.00;;;2.57;;
3865;SDS011;1948;53.250;10.412;2023-08-24T14:41:37;2.87;;;2.67;;
3865;SDS011;1948;53.250;10.412;2023-08-24T14:44:04;10.10;;;2.33;;
3865;SDS011;1948;53.250;10.412;2023-08-24T14:46:31;5.90;;;2.60;;
3865;SDS011;1948;53.250;10.412;2023-08-24T14:48:59;7.23;;;2.40;;
3865;SDS011;1948;53.250;10.412;2023-08-24T14:51:29;6.80;;;2.20;;
3865;SDS011;1948;53.250;10.412;2023-08-24T14:53:56;4.93;;;2.73;;
3865;SDS011;1948;53.250;10.412;2023-08-24T14:56:25;2.83;;;2.63;;
3865;SDS011;1948;53.250;10.412;2023-08-24T14:58:53;2.40;;;2.30;;
3865;SDS011;1948;53.250;10.412;2023-08-24T15:01:20;11.33;;;3.07;;
3865;SDS011;1948;53.250;10.412;2023-08-24T15:03:47;4.63;;;2.83;;
3865;SDS011;1948;53.250;10.412;2023-08-24T15:06:14;5.63;;;3.30;;
3865;SDS011;1948;53.250;10.412;2023-08-24T15:08:41;2.53;;;2.43;;
3865;SDS011;1948;53.250;10.412;2023-08-24T15:11:13;2.83;;;2.63;;
3865;SDS011;1948;53.250;10.412;2023-08-24T15:13:53;4.03;;;2.83;;
3865;SDS011;1948;53.250;10.412;2023-08-24T15:16:22;2.70;;;2.70;;
3865;SDS011;1948;53.250;10.412;2023-08-24T15:18:50;4.07;;;2.67;;
3865;SDS011;1948;53.250;10.412;2023-08-24T15:21:21;6.67;;;3.10;;
3865;SDS011;1948;53.250;10.412;2023-08-24T15:23:51;3.60;;;3.30;;